Terminal Aerodrome Forecast
Issued by NWS

Home | Current Version | Previous Version | Text Only | Print | Product List | Glossary On
Versions: 1 2 3 4 5 6 7 8 9 10 11 12 13 14 15 16 17 18 19 20 21 22 23 24 25 26 27 28 29 30 31 32 33 34 35 36 37 38 39 40 41 42 43 44 45 46 47 48 49 50
089
FTUS45 KBOU 290220 AAB
TAFBJC
TAF AMD
KBJC 290220Z 2902/2924 02012G22KT 1SM -SN BR BKN006 OVC010
      TEMPO 2902/2906 1/2SM SN FZFG VV003
     FM290700 01014KT 1 1/2SM -SN BR OVC005
     FM291500 36007KT 2SM -SN BR OVC008
     FM292000 01014G22KT 5SM -SN BR SCT011 OVC020=

USA.gov is the U.S. government's official web portal to all federal, state and local government web resources and services.